Time;durP1;ratioP1;P1;durP2;ratioP2;P2;SDS_P1;SDS_P2;PMS_P1;PMS_P2;Temp;Humidity;BMP_temperature;BMP_pressure;BME280_temperature;BME280_humidity;BME280_pressure;Samples;Min_cycle;Max_cycle;Signal;HPM_P1;HPM_P2
2023/10/06 00:00:33;;;;;;;2.58;0.60;;;12.50;99.90;;;;;;4978935;28;20054;-90
2023/10/06 00:02:59;;;;;;;1.58;0.60;;;12.50;99.90;;;;;;4971294;28;20038;-89
2023/10/06 00:05:25;;;;;;;1.77;0.60;;;12.50;99.90;;;;;;4938006;28;20031;-90
2023/10/06 00:07:51;;;;;;;2.50;0.70;;;12.50;99.90;;;;;;4937363;28;20027;-89
2023/10/06 00:10:21;;;;;;;2.60;0.55;;;12.50;99.90;;;;;;4954255;28;20467;-87
2023/10/06 00:12:54;;;;;;;3.20;0.70;;;12.50;99.90;;;;;;4936556;28;20070;-88
2023/10/06 00:15:26;;;;;;;4.03;0.65;;;12.50;99.90;;;;;;4936807;28;20476;-87
2023/10/06 00:18:07;;;;;;;1.63;0.43;;;12.50;99.90;;;;;;4954898;28;20053;-87
2023/10/06 00:20:49;;;;;;;1.88;0.60;;;12.50;99.90;;;;;;4972183;28;20033;-89
2023/10/06 00:23:21;;;;;;;2.92;0.95;;;12.40;99.90;;;;;;4955611;28;20030;-89
2023/10/06 00:25:51;;;;;;;2.00;0.68;;;12.40;99.90;;;;;;4938278;28;20029;-87
2023/10/06 00:28:22;;;;;;;1.70;0.60;;;12.40;99.90;;;;;;4956384;28;20038;-87
2023/10/06 00:30:58;;;;;;;2.47;0.50;;;12.40;99.90;;;;;;4979719;28;20493;-88
2023/10/06 00:33:34;;;;;;;2.10;0.60;;;12.40;99.90;;;;;;4967863;28;20073;-87
2023/10/06 00:36:07;;;;;;;1.67;0.47;;;12.40;99.90;;;;;;4971249;28;20563;-87
2023/10/06 00:38:36;;;;;;;1.90;0.60;;;12.40;99.90;;;;;;4956041;28;20034;-88
2023/10/06 00:41:07;;;;;;;2.38;0.60;;;12.40;99.90;;;;;;4955684;28;20031;-87
2023/10/06 00:43:39;;;;;;;2.10;0.70;;;12.30;99.90;;;;;;4936712;28;20066;-88
2023/10/06 00:46:08;;;;;;;2.63;0.80;;;12.30;99.90;;;;;;4937162;28;20026;-87
2023/10/06 00:48:42;;;;;;;2.60;0.60;;;12.40;99.90;;;;;;4937562;28;20039;-88
2023/10/06 00:51:19;;;;;;;2.67;0.60;;;12.30;99.90;;;;;;4971554;28;20050;-87
2023/10/06 00:53:51;;;;;;;2.50;0.50;;;12.30;99.90;;;;;;4955776;28;20097;-87
2023/10/06 00:56:23;;;;;;;1.45;0.50;;;12.30;99.90;;;;;;4970621;28;20030;-88
2023/10/06 00:58:49;;;;;;;1.60;0.50;;;12.30;99.90;;;;;;4950422;28;20125;-87
2023/10/06 01:01:18;;;;;;;7.15;0.82;;;12.30;99.90;;;;;;4953630;28;20109;-89
2023/10/06 01:04:06;;;;;;;1.55;0.70;;;12.30;99.90;;;;;;4935672;28;20035;-87
2023/10/06 01:06:35;;;;;;;1.77;0.80;;;12.30;99.90;;;;;;4955444;28;20435;-87
2023/10/06 01:09:09;;;;;;;3.75;0.65;;;12.20;99.90;;;;;;4937152;28;20030;-88
2023/10/06 01:11:44;;;;;;;2.40;0.70;;;12.20;99.90;;;;;;4954971;28;20027;-87
2023/10/06 01:14:11;;;;;;;2.13;0.80;;;12.20;99.90;;;;;;4971513;28;20033;-92
2023/10/06 01:16:37;;;;;;;2.50;1.00;;;12.20;99.90;;;;;;4940378;28;20444;-88
2023/10/06 01:21:52;;;;;;;2.38;0.70;;;12.20;99.90;;;;;;4954736;28;20109;-88
2023/10/06 01:24:39;;;;;;;2.65;0.90;;;12.20;99.90;;;;;;4953493;28;20023;-89
2023/10/06 01:27:07;;;;;;;1.67;0.60;;;12.20;99.90;;;;;;4954399;28;20031;-89
2023/10/06 01:29:34;;;;;;;5.20;1.13;;;12.10;99.90;;;;;;4954850;28;20026;-88
2023/10/06 01:32:04;;;;;;;2.60;1.05;;;12.20;99.90;;;;;;4976935;28;20502;-88
2023/10/06 01:34:38;;;;;;;;;;;12.10;99.90;;;;;;4938953;28;20542;-87
2023/10/06 01:37:04;;;;;;;1.88;0.73;;;12.10;99.90;;;;;;4970562;28;19917;-87
2023/10/06 01:39:32;;;;;;;5.20;0.70;;;12.20;99.90;;;;;;4938129;28;20149;-89
2023/10/06 01:42:04;;;;;;;3.75;0.90;;;12.10;99.90;;;;;;4951779;28;20113;-87
2023/10/06 01:44:31;;;;;;;3.45;1.20;;;12.20;99.90;;;;;;4955038;28;20027;-86
2023/10/06 01:46:57;;;;;;;2.65;1.05;;;12.10;99.90;;;;;;4971217;28;20031;-87
2023/10/06 01:49:24;;;;;;;4.25;1.10;;;12.10;99.90;;;;;;4971075;28;20127;-90
2023/10/06 01:51:50;;;;;;;3.88;1.65;;;12.20;99.90;;;;;;4933441;28;20077;-87
2023/10/06 01:54:17;;;;;;;3.65;0.77;;;12.10;99.90;;;;;;4970607;28;20106;-90
2023/10/06 01:56:44;;;;;;;3.67;1.00;;;12.10;99.90;;;;;;4950588;28;20062;-88
2023/10/06 01:59:11;;;;;;;2.15;0.98;;;12.10;99.90;;;;;;4953614;28;20045;-86
2023/10/06 02:01:39;;;;;;;2.40;0.90;;;12.10;99.90;;;;;;4954570;28;20395;-88
2023/10/06 02:04:13;;;;;;;2.55;1.10;;;12.10;99.90;;;;;;4934705;28;20038;-88
2023/10/06 02:06:45;;;;;;;2.20;0.60;;;12.10;99.90;;;;;;4953324;28;20030;-86
2023/10/06 02:09:18;;;;;;;6.63;1.70;;;12.10;99.90;;;;;;4954405;28;20473;-85
2023/10/06 02:11:45;;;;;;;3.65;1.13;;;12.10;99.90;;;;;;4951902;28;20495;-88
2023/10/06 02:14:18;;;;;;;2.70;0.98;;;12.00;99.90;;;;;;4953748;28;20062;-87
2023/10/06 02:16:49;;;;;;;2.83;0.85;;;12.00;99.90;;;;;;4934836;28;20038;-89
2023/10/06 02:19:16;;;;;;;1.58;0.70;;;12.00;99.90;;;;;;4933370;28;20045;-89
2023/10/06 02:21:44;;;;;;;2.05;0.90;;;12.00;99.90;;;;;;4953679;28;20077;-87
2023/10/06 02:24:09;;;;;;;2.30;0.80;;;12.00;99.90;;;;;;4952885;28;20022;-90
2023/10/06 02:26:36;;;;;;;2.58;0.80;;;12.00;99.90;;;;;;4991801;28;20483;-89
2023/10/06 02:29:07;;;;;;;3.10;0.80;;;12.00;99.90;;;;;;4953546;28;20039;-88
2023/10/06 02:31:35;;;;;;;3.70;0.95;;;12.00;99.90;;;;;;4934684;28;20510;-88
2023/10/06 02:34:01;;;;;;;3.20;0.65;;;12.00;99.90;;;;;;4952235;28;20055;-88
2023/10/06 02:36:28;;;;;;;2.97;0.65;;;12.00;99.90;;;;;;4934618;28;20464;-88
2023/10/06 02:38:54;;;;;;;3.17;0.60;;;12.00;99.90;;;;;;4935119;28;20089;-87
2023/10/06 02:41:23;;;;;;;3.25;0.80;;;12.00;99.90;;;;;;4936077;28;20365;-89
2023/10/06 02:43:50;;;;;;;3.13;1.00;;;12.00;99.90;;;;;;4973857;28;20027;-88
2023/10/06 02:46:21;;;;;;;2.10;0.85;;;12.00;99.90;;;;;;4969431;28;20122;-87
2023/10/06 02:48:50;;;;;;;4.45;0.93;;;11.90;99.90;;;;;;4951983;28;20026;-89
2023/10/06 02:51:32;;;;;;;3.00;0.75;;;11.90;99.90;;;;;;4982200;28;20570;-88
2023/10/06 02:54:13;;;;;;;1.70;0.73;;;11.90;99.90;;;;;;4966180;28;20039;-88
2023/10/06 02:56:40;;;;;;;2.22;0.52;;;11.90;99.90;;;;;;4951394;28;20042;-87
2023/10/06 02:59:26;;;;;;;2.38;0.70;;;11.80;99.90;;;;;;4953110;28;20043;-87
2023/10/06 03:02:06;;;;;;;4.53;1.30;;;11.80;99.90;;;;;;4950147;28;20034;-89
2023/10/06 03:04:35;;;;;;;;;;;11.90;99.90;;;;;;4958205;28;20084;-89
2023/10/06 03:07:11;;;;;;;2.22;0.80;;;11.90;99.90;;;;;;4974923;28;19952;-89
2023/10/06 03:09:38;;;;;;;3.00;0.65;;;11.90;99.90;;;;;;4951529;28;20409;-86
2023/10/06 03:12:39;;;;;;;2.10;0.68;;;11.90;99.90;;;;;;4932440;28;20369;-88
2023/10/06 03:14:57;;;;;;;2.47;0.70;;;11.80;99.90;;;;;;4949845;28;20039;-88
2023/10/06 03:17:23;;;;;;;3.55;0.85;;;11.90;99.90;;;;;;4934686;28;20038;-89
2023/10/06 03:22:40;;;;;;;2.25;0.70;;;11.90;99.90;;;;;;4981172;28;20079;-87
2023/10/06 03:25:19;;;;;;;2.47;0.95;;;11.90;99.90;;;;;;4936354;28;20452;-87
2023/10/06 03:27:53;;;;;;;1.98;1.00;;;11.80;99.90;;;;;;4984091;28;20030;-92
2023/10/06 03:30:34;;;;;;;3.75;1.10;;;11.80;99.90;;;;;;4953214;28;20034;-86
2023/10/06 03:33:03;;;;;;;3.47;1.52;;;11.80;99.90;;;;;;4937649;28;20031;-88
2023/10/06 03:35:36;;;;;;;2.47;1.50;;;11.90;99.90;;;;;;4937600;28;20031;-89
2023/10/06 03:40:53;;;;;;;4.47;2.13;;;11.80;99.90;;;;;;4969661;28;20046;-87
2023/10/06 03:46:23;;;;;;;3.13;0.90;;;11.70;99.90;;;;;;4963844;28;20031;-89
2023/10/06 03:48:51;;;;;;;2.97;0.80;;;11.70;99.90;;;;;;4946075;28;20039;-89
2023/10/06 03:51:21;;;;;;;3.38;0.82;;;11.70;99.90;;;;;;4955175;28;20023;-90
2023/10/06 03:53:48;;;;;;;2.67;1.10;;;11.70;99.90;;;;;;4940590;28;20050;-90
2023/10/06 03:56:17;;;;;;;3.10;1.15;;;11.80;99.90;;;;;;4961398;28;20028;-91
2023/10/06 03:58:44;;;;;;;3.58;1.08;;;11.80;99.90;;;;;;4938181;28;20039;-92
2023/10/06 04:01:14;;;;;;;3.30;1.52;;;11.80;99.90;;;;;;4954105;28;20042;-89
2023/10/06 04:03:39;;;;;;;2.90;1.10;;;11.70;99.90;;;;;;4949534;28;20106;-90
2023/10/06 04:06:05;;;;;;;3.95;1.10;;;11.70;99.90;;;;;;4960362;28;20043;-92
2023/10/06 04:08:31;;;;;;;3.42;1.60;;;11.70;99.90;;;;;;4949014;28;20055;-88
2023/10/06 04:10:59;;;;;;;4.47;1.92;;;11.70;99.90;;;;;;4956216;28;20035;-89
2023/10/06 04:13:26;;;;;;;2.30;1.02;;;11.80;99.90;;;;;;4979727;28;20047;-88
2023/10/06 04:15:52;;;;;;;3.88;1.70;;;11.70;99.90;;;;;;4953556;28;20553;-90
2023/10/06 04:18:23;;;;;;;3.33;1.48;;;11.70;99.90;;;;;;4941667;28;20035;-90
2023/10/06 04:20:51;;;;;;;5.30;1.48;;;11.70;99.90;;;;;;4953587;28;20055;-89
2023/10/06 04:23:18;;;;;;;3.75;1.30;;;11.70;99.90;;;;;;4940389;28;20031;-92
2023/10/06 04:25:45;;;;;;;3.88;1.50;;;11.70;99.90;;;;;;4940901;28;20526;-87
2023/10/06 04:28:16;;;;;;;3.00;1.05;;;11.70;99.90;;;;;;4956551;28;20475;-91
2023/10/06 04:30:45;;;;;;;2.63;0.82;;;11.70;99.90;;;;;;4964345;28;20037;-89
2023/10/06 04:33:14;;;;;;;3.47;0.85;;;11.80;99.90;;;;;;4975947;28;20038;-89
2023/10/06 04:35:42;;;;;;;2.00;0.80;;;11.70;99.90;;;;;;4934869;28;20385;-92
2023/10/06 04:38:10;;;;;;;1.92;0.80;;;11.70;99.90;;;;;;4951510;28;20045;-89
2023/10/06 04:40:37;;;;;;;4.70;1.25;;;11.70;99.90;;;;;;4955931;28;20126;-92
2023/10/06 04:43:03;;;;;;;4.57;0.90;;;11.80;99.90;;;;;;4935964;28;20030;-90
2023/10/06 04:45:32;;;;;;;2.30;0.63;;;11.70;99.90;;;;;;4956364;28;20027;-89
2023/10/06 04:48:02;;;;;;;2.67;1.00;;;11.70;99.90;;;;;;4953853;28;20039;-89
2023/10/06 04:50:29;;;;;;;5.22;1.30;;;11.70;99.90;;;;;;4972546;28;20027;-89
2023/10/06 04:52:55;;;;;;;2.75;1.13;;;11.70;99.90;;;;;;4995524;28;20087;-89
2023/10/06 04:55:21;;;;;;;4.82;2.50;;;11.70;99.90;;;;;;4955182;28;20027;-90
2023/10/06 04:57:47;;;;;;;4.15;2.70;;;11.70;99.90;;;;;;4955525;28;20038;-91
2023/10/06 05:00:15;;;;;;;9.25;3.00;;;11.70;99.90;;;;;;4934136;28;20023;-90
2023/10/06 05:02:44;;;;;;;4.13;2.42;;;11.70;99.90;;;;;;4953060;28;20042;-89
2023/10/06 05:05:33;;;;;;;5.82;3.03;;;11.70;99.90;;;;;;4952669;28;20464;-91
2023/10/06 05:08:00;;;;;;;4.85;2.55;;;11.70;99.90;;;;;;4966770;28;20392;-92
2023/10/06 05:10:26;;;;;;;4.72;2.00;;;11.60;99.90;;;;;;4931247;28;20041;-89
2023/10/06 05:12:52;;;;;;;4.43;1.83;;;11.60;99.90;;;;;;4971555;28;20511;-89
2023/10/06 05:15:26;;;;;;;4.25;2.15;;;11.60;99.90;;;;;;4950205;28;20082;-92
2023/10/06 05:17:55;;;;;;;5.57;1.42;;;11.60;99.90;;;;;;4954820;28;20400;-91
2023/10/06 05:20:29;;;;;;;3.22;1.20;;;11.60;99.90;;;;;;4951480;28;20035;-90
2023/10/06 05:23:07;;;;;;;5.15;1.40;;;11.50;99.90;;;;;;4934932;28;20038;-90
2023/10/06 05:25:44;;;;;;;4.85;1.60;;;11.50;99.90;;;;;;4971603;28;20077;-92
2023/10/06 05:28:16;;;;;;;4.35;1.30;;;11.50;99.90;;;;;;4929071;28;20023;-91
2023/10/06 05:30:43;;;;;;;4.45;1.60;;;11.50;99.90;;;;;;4955455;28;20031;-89
2023/10/06 05:33:09;;;;;;;4.22;1.20;;;11.50;99.90;;;;;;4970600;28;20102;-90
2023/10/06 05:35:38;;;;;;;3.63;1.08;;;11.50;99.90;;;;;;4936782;28;20039;-91
2023/10/06 05:38:14;;;;;;;2.78;0.60;;;11.50;99.90;;;;;;4936199;28;20062;-90
2023/10/06 05:40:49;;;;;;;3.90;0.90;;;11.50;99.90;;;;;;4951395;28;20460;-91
2023/10/06 05:43:16;;;;;;;4.43;1.42;;;11.50;99.90;;;;;;4951896;28;20077;-89
2023/10/06 05:45:42;;;;;;;2.35;1.20;;;11.50;99.90;;;;;;4970441;28;20042;-94
2023/10/06 05:48:10;;;;;;;3.95;1.40;;;11.50;99.90;;;;;;4960068;28;20396;-90
2023/10/06 05:50:36;;;;;;;6.57;2.15;;;11.60;99.90;;;;;;4993025;28;20062;-92
2023/10/06 05:53:12;;;;;;;5.03;2.63;;;11.60;99.90;;;;;;4953616;28;20563;-88
2023/10/06 05:55:41;;;;;;;7.80;4.15;;;11.60;99.90;;;;;;4949378;28;20535;-91
2023/10/06 05:58:27;;;;;;;10.40;3.90;;;11.60;99.90;;;;;;4933138;28;20042;-92
2023/10/06 06:00:56;;;;;;;5.50;3.20;;;11.70;99.90;;;;;;4936463;28;20031;-91
2023/10/06 06:03:23;;;;;;;4.93;2.33;;;11.70;99.90;;;;;;4954118;28;20129;-90
2023/10/06 06:05:52;;;;;;;6.30;1.85;;;11.70;99.90;;;;;;4931325;28;20085;-90
2023/10/06 06:08:18;;;;;;;5.32;2.22;;;11.70;99.90;;;;;;4953489;28;20046;-90
2023/10/06 06:10:45;;;;;;;3.22;1.25;;;11.80;99.90;;;;;;4953849;28;20122;-89
2023/10/06 06:13:13;;;;;;;3.85;1.10;;;11.80;99.90;;;;;;4933162;28;20078;-92
2023/10/06 06:15:40;;;;;;;3.67;1.10;;;11.90;99.90;;;;;;4953518;28;20023;-93
2023/10/06 06:18:08;;;;;;;1.60;0.70;;;12.00;99.90;;;;;;4940561;28;20042;-95
2023/10/06 06:20:48;;;;;;;2.85;1.10;;;12.00;99.90;;;;;;4951548;28;20039;-93
2023/10/06 06:23:15;;;;;;;2.72;1.20;;;12.10;99.90;;;;;;4953196;28;20440;-93
2023/10/06 06:25:42;;;;;;;3.75;1.30;;;12.10;99.90;;;;;;4939849;28;20027;-92
2023/10/06 06:28:08;;;;;;;5.25;0.93;;;12.20;99.90;;;;;;4967534;28;20031;-92
2023/10/06 06:30:37;;;;;;;4.22;1.10;;;12.30;99.90;;;;;;4939777;28;20037;-92
2023/10/06 06:33:04;;;;;;;2.47;1.20;;;12.20;99.90;;;;;;4948864;28;20031;-93
2023/10/06 06:35:31;;;;;;;3.15;0.93;;;12.30;99.90;;;;;;4945402;28;20026;-93
2023/10/06 06:38:01;;;;;;;2.67;0.65;;;12.30;99.90;;;;;;4952647;28;20471;-94
2023/10/06 06:40:31;;;;;;;5.32;1.15;;;12.40;99.90;;;;;;4931312;28;20058;-92
2023/10/06 06:43:00;;;;;;;3.13;1.00;;;12.40;99.90;;;;;;4950951;28;20093;-93
2023/10/06 06:45:26;;;;;;;2.30;0.97;;;12.40;99.90;;;;;;4967854;28;20046;-94
2023/10/06 06:47:55;;;;;;;2.67;0.73;;;12.50;99.90;;;;;;4941515;28;20449;-92
2023/10/06 06:50:21;;;;;;;3.85;1.08;;;12.50;99.90;;;;;;4931754;28;20109;-91
2023/10/06 06:52:54;;;;;;;4.78;1.13;;;12.50;99.90;;;;;;4945978;28;20034;-93
2023/10/06 06:55:21;;;;;;;3.38;0.77;;;12.50;99.90;;;;;;4944387;28;20026;-92
2023/10/06 06:57:50;;;;;;;2.85;0.80;;;12.60;99.90;;;;;;4932923;28;20031;-89
2023/10/06 07:00:21;;;;;;;2.70;0.70;;;12.60;99.90;;;;;;4953329;28;20493;-91
2023/10/06 07:02:52;;;;;;;4.15;0.80;;;12.60;99.90;;;;;;4969416;28;20050;-90
2023/10/06 07:05:22;;;;;;;2.33;0.80;;;12.60;99.90;;;;;;4930351;28;20053;-92
2023/10/06 07:07:52;;;;;;;2.67;0.50;;;12.70;99.90;;;;;;4954352;28;20645;-93
2023/10/06 07:10:22;;;;;;;;;;;12.70;99.90;;;;;;4968686;28;20122;-93
2023/10/06 07:12:50;;;;;;;2.58;0.52;;;12.80;99.90;;;;;;4947715;28;19997;-93
2023/10/06 07:15:18;;;;;;;2.95;0.60;;;12.80;99.90;;;;;;4939383;28;20093;-95
2023/10/06 07:17:48;;;;;;;3.35;0.60;;;12.90;99.90;;;;;;4932403;28;20058;-94
2023/10/06 07:20:18;;;;;;;2.28;0.80;;;12.90;99.90;;;;;;4935952;28;20027;-91
2023/10/06 07:22:49;;;;;;;3.60;0.70;;;13.00;99.90;;;;;;4953492;28;20051;-93
2023/10/06 07:25:15;;;;;;;3.53;1.08;;;12.90;99.90;;;;;;4938699;28;20432;-91
2023/10/06 07:27:43;;;;;;;2.42;1.00;;;12.90;99.90;;;;;;4941727;28;20035;-92
2023/10/06 07:30:10;;;;;;;2.90;0.60;;;12.90;99.90;;;;;;4953462;28;20027;-93
2023/10/06 07:32:46;;;;;;;2.17;0.60;;;12.90;99.90;;;;;;4940213;28;20049;-93
2023/10/06 07:35:14;;;;;;;3.30;0.75;;;12.90;99.90;;;;;;4949345;28;20107;-92
2023/10/06 07:37:44;;;;;;;3.03;1.08;;;13.00;99.90;;;;;;4989748;28;20066;-91
2023/10/06 07:40:15;;;;;;;3.40;0.98;;;13.10;99.90;;;;;;4932963;28;20027;-95
2023/10/06 07:42:46;;;;;;;2.30;0.80;;;13.20;99.90;;;;;;4935462;28;20039;-92
2023/10/06 07:45:20;;;;;;;5.38;1.15;;;13.30;99.90;;;;;;4954628;28;20034;-96
2023/10/06 07:47:46;;;;;;;3.95;0.90;;;13.40;99.90;;;;;;4941920;28;20041;-93
2023/10/06 07:50:14;;;;;;;4.90;0.90;;;13.70;99.90;;;;;;4931257;28;20035;-91
2023/10/06 07:52:41;;;;;;;3.08;0.63;;;13.80;99.90;;;;;;4937447;28;20031;-96
2023/10/06 07:55:09;;;;;;;4.18;0.60;;;13.90;99.90;;;;;;4934102;28;20034;-93
2023/10/06 07:57:42;;;;;;;3.83;0.60;;;13.90;99.90;;;;;;4933029;28;20050;-95
2023/10/06 08:00:18;;;;;;;1.90;0.55;;;14.00;99.90;;;;;;4957133;28;20376;-93
2023/10/06 08:02:47;;;;;;;3.15;0.60;;;14.10;99.90;;;;;;4971991;28;20034;-92
2023/10/06 08:05:17;;;;;;;3.75;0.50;;;14.30;99.90;;;;;;4943225;28;20035;-92
2023/10/06 08:07:43;;;;;;;4.72;1.00;;;14.40;99.90;;;;;;4929476;28;20066;-93
2023/10/06 08:10:19;;;;;;;4.15;1.00;;;14.60;99.90;;;;;;4947052;28;20121;-94
2023/10/06 08:12:47;;;;;;;6.45;1.45;;;14.60;99.90;;;;;;4988171;28;20113;-94
2023/10/06 08:15:25;;;;;;;2.58;0.90;;;14.70;99.90;;;;;;4941668;28;20026;-92
2023/10/06 08:17:55;;;;;;;3.13;0.80;;;14.90;99.90;;;;;;4955566;28;20043;-94
2023/10/06 08:20:21;;;;;;;3.47;0.70;;;15.00;99.90;;;;;;4966774;28;20030;-94
2023/10/06 08:22:49;;;;;;;3.72;0.80;;;15.10;99.90;;;;;;4966902;28;20431;-94
2023/10/06 08:25:16;;;;;;;4.65;0.75;;;15.20;99.90;;;;;;4951518;28;20031;-95
2023/10/06 08:27:44;;;;;;;3.92;0.85;;;15.10;99.90;;;;;;4956890;28;20031;-93
2023/10/06 08:30:18;;;;;;;2.65;0.70;;;15.00;99.90;;;;;;4956208;28;20468;-92
2023/10/06 08:32:47;;;;;;;3.08;0.90;;;15.10;99.90;;;;;;4954830;28;20031;-92
2023/10/06 08:35:13;;;;;;;3.00;0.93;;;15.20;99.90;;;;;;4956993;28;20031;-92
2023/10/06 08:37:47;;;;;;;5.57;0.90;;;15.30;99.90;;;;;;4971428;28;20338;-93
2023/10/06 08:40:19;;;;;;;3.58;0.80;;;15.40;99.90;;;;;;4955408;28;20125;-94
2023/10/06 08:42:48;;;;;;;3.58;1.00;;;15.70;99.90;;;;;;4956250;28;20403;-94
2023/10/06 08:45:20;;;;;;;4.00;0.73;;;15.80;99.90;;;;;;4938152;28;20086;-93
2023/10/06 08:47:48;;;;;;;4.32;1.00;;;15.80;99.90;;;;;;4955369;28;20036;-91
2023/10/06 08:50:17;;;;;;;2.85;0.90;;;15.90;99.90;;;;;;4939638;28;20113;-93
2023/10/06 08:52:45;;;;;;;3.60;0.68;;;16.00;99.90;;;;;;4989444;28;20113;-95
2023/10/06 08:55:15;;;;;;;3.47;0.95;;;15.90;99.90;;;;;;4969935;28;20038;-96
2023/10/06 08:57:45;;;;;;;2.25;0.80;;;15.70;99.90;;;;;;4954652;28;20089;-94
2023/10/06 09:00:17;;;;;;;6.72;1.27;;;15.60;99.90;;;;;;4956868;28;20356;-93
2023/10/06 09:02:45;;;;;;;3.42;0.70;;;15.80;99.90;;;;;;4938811;28;20035;-93
2023/10/06 09:05:11;;;;;;;5.80;0.95;;;16.10;99.90;;;;;;4944599;28;20041;-93
2023/10/06 09:07:38;;;;;;;3.97;0.70;;;16.40;99.90;;;;;;4952917;28;20034;-94
2023/10/06 09:10:17;;;;;;;3.72;1.00;;;16.40;99.90;;;;;;4936075;28;20031;-94
2023/10/06 09:12:43;;;;;;;2.72;0.80;;;16.50;99.90;;;;;;4954628;28;20046;-95
2023/10/06 09:15:15;;;;;;;2.33;0.60;;;16.50;99.90;;;;;;4944254;28;20113;-91
2023/10/06 09:17:41;;;;;;;6.18;1.38;;;16.50;99.90;;;;;;4942076;28;20047;-91
2023/10/06 09:20:11;;;;;;;4.32;1.00;;;16.40;99.90;;;;;;4967573;28;20041;-94
2023/10/06 09:22:45;;;;;;;7.75;1.10;;;16.50;99.90;;;;;;4956330;28;20445;-92
2023/10/06 09:25:11;;;;;;;2.25;0.98;;;16.50;99.90;;;;;;4967886;28;20081;-92
2023/10/06 09:27:37;;;;;;;3.75;0.98;;;16.50;99.90;;;;;;4955798;28;20030;-89
2023/10/06 09:30:20;;;;;;;3.55;1.02;;;16.70;99.90;;;;;;4989050;28;20058;-95
2023/10/06 09:32:46;;;;;;;6.30;1.13;;;16.80;99.90;;;;;;4957106;28;20037;-92
2023/10/06 09:35:22;;;;;;;4.22;0.80;;;16.90;99.90;;;;;;4947316;28;20038;-92
2023/10/06 09:37:56;;;;;;;4.97;1.65;;;17.30;99.90;;;;;;4934266;28;20077;-93
2023/10/06 09:40:22;;;;;;;3.47;1.17;;;17.20;99.90;;;;;;4957363;28;20030;-95
2023/10/06 09:42:50;;;;;;;4.28;0.90;;;17.20;99.90;;;;;;4957140;28;20030;-94
2023/10/06 09:45:20;;;;;;;4.80;0.90;;;17.20;99.90;;;;;;4972732;28;20063;-91
2023/10/06 09:47:50;;;;;;;4.70;1.40;;;17.30;99.90;;;;;;4933737;28;20067;-94
2023/10/06 09:50:20;;;;;;;3.47;1.00;;;17.20;99.90;;;;;;4938410;28;20054;-92
2023/10/06 09:52:50;;;;;;;3.28;1.17;;;17.10;99.90;;;;;;4932045;28;20403;-96
2023/10/06 09:55:19;;;;;;;5.80;1.25;;;17.00;99.90;;;;;;4938052;28;20097;-93
2023/10/06 09:57:49;;;;;;;3.65;0.80;;;16.90;99.90;;;;;;4940346;28;20031;-93
2023/10/06 10:00:19;;;;;;;5.38;0.90;;;17.00;99.90;;;;;;4934651;28;20069;-94
2023/10/06 10:02:47;;;;;;;2.95;0.80;;;17.00;99.90;;;;;;4963975;28;20125;-92
2023/10/06 10:05:19;;;;;;;5.40;1.00;;;17.00;99.90;;;;;;4948238;28;20050;-94
2023/10/06 10:07:46;;;;;;;4.35;0.90;;;17.00;99.90;;;;;;4951841;28;20054;-93
2023/10/06 10:10:13;;;;;;;5.10;0.98;;;17.00;99.90;;;;;;4937315;28;20038;-93
2023/10/06 10:13:19;;;;;;;5.38;1.40;;;17.00;99.90;;;;;;4928200;28;20027;-94
2023/10/06 10:16:19;;;;;;;6.53;1.48;;;17.00;99.90;;;;;;4967800;28;20047;-95
2023/10/06 10:18:56;;;;;;;7.97;1.23;;;17.40;99.90;;;;;;4950588;28;20038;-94
2023/10/06 10:21:23;;;;;;;4.70;0.80;;;17.70;99.90;;;;;;4937575;28;20137;-92
2023/10/06 10:23:49;;;;;;;4.47;0.80;;;18.00;99.90;;;;;;4940034;28;20073;-89
2023/10/06 10:26:22;;;;;;;6.97;1.00;;;18.10;99.90;;;;;;4952841;28;20027;-94
2023/10/06 10:29:12;;;;;;;4.63;0.90;;;18.10;99.90;;;;;;4943494;28;20390;-90
2023/10/06 10:31:42;;;;;;;2.58;0.60;;;18.50;99.90;;;;;;4932480;28;20484;-91
2023/10/06 10:34:19;;;;;;;6.13;1.20;;;18.70;99.90;;;;;;4939536;28;20114;-95
2023/10/06 10:36:45;;;;;;;3.70;0.63;;;18.10;99.90;;;;;;4934082;28;20483;-93
2023/10/06 10:39:17;;;;;;;6.72;0.82;;;18.50;99.90;;;;;;4956469;28;20139;-94
2023/10/06 10:41:45;;;;;;;4.72;0.80;;;18.60;99.90;;;;;;4966728;28;20034;-92
2023/10/06 10:44:12;;;;;;;7.07;1.10;;;19.00;99.90;;;;;;4951729;28;20039;-92
2023/10/06 10:46:47;;;;;;;6.35;0.70;;;18.40;99.90;;;;;;4943719;28;20030;-93
2023/10/06 10:49:22;;;;;;;4.10;0.70;;;18.60;99.90;;;;;;4952100;28;20122;-96
2023/10/06 10:52:02;;;;;;;2.63;0.50;;;18.40;99.90;;;;;;4952139;28;20031;-95
2023/10/06 10:54:31;;;;;;;2.35;0.50;;;19.00;99.90;;;;;;4930616;28;20023;-93
2023/10/06 10:57:09;;;;;;;5.13;0.60;;;19.30;99.90;;;;;;4950327;28;20035;-92
2023/10/06 11:00:02;;;;;;;3.00;0.47;;;19.60;99.90;;;;;;4948870;28;20055;-91
2023/10/06 11:02:40;;;;;;;4.32;0.60;;;19.50;99.90;;;;;;4967371;28;20042;-91
2023/10/06 11:05:07;;;;;;;4.28;0.70;;;19.20;99.90;;;;;;4971113;28;20042;-92
2023/10/06 11:07:35;;;;;;;3.45;0.68;;;18.90;99.90;;;;;;4936670;28;20102;-92
2023/10/06 11:10:04;;;;;;;2.28;0.52;;;18.70;99.90;;;;;;4941069;28;20046;-94
2023/10/06 11:12:30;;;;;;;3.28;0.60;;;18.80;99.90;;;;;;4934042;28;20023;-92
2023/10/06 11:15:03;;;;;;;2.38;0.50;;;18.70;99.90;;;;;;4930146;28;20042;-92
2023/10/06 11:17:32;;;;;;;5.43;0.70;;;18.70;99.90;;;;;;4931814;28;20031;-93
2023/10/06 11:20:15;;;;;;;3.20;0.60;;;18.40;99.90;;;;;;4929104;28;20030;-92
2023/10/06 11:22:53;;;;;;;5.65;0.77;;;18.50;99.90;;;;;;4928687;28;20085;-93
2023/10/06 11:25:19;;;;;;;2.33;0.40;;;18.50;99.90;;;;;;4964809;28;20055;-90
2023/10/06 11:27:55;;;;;;;4.47;0.60;;;18.50;99.90;;;;;;4946602;28;20035;-92
2023/10/06 11:30:23;;;;;;;4.28;0.60;;;18.70;99.90;;;;;;4931691;28;20039;-92
2023/10/06 11:32:50;;;;;;;2.40;0.40;;;18.50;99.90;;;;;;4968370;28;20031;-91
2023/10/06 11:35:17;;;;;;;3.65;0.77;;;18.70;99.90;;;;;;4932930;28;20391;-90
2023/10/06 11:37:43;;;;;;;2.70;0.75;;;18.70;99.90;;;;;;4928525;28;20043;-89
2023/10/06 11:40:12;;;;;;;5.05;0.80;;;18.70;99.90;;;;;;4938708;28;20096;-92
2023/10/06 11:42:41;;;;;;;3.73;0.70;;;18.70;99.90;;;;;;4931596;28;20026;-93
2023/10/06 11:45:24;;;;;;;5.38;0.93;;;18.70;99.90;;;;;;4932099;28;20328;-93
2023/10/06 11:47:51;;;;;;;4.53;0.70;;;18.60;99.90;;;;;;4951616;28;20104;-92
2023/10/06 11:50:22;;;;;;;6.13;0.70;;;18.60;99.90;;;;;;4931878;28;20015;-92
2023/10/06 11:52:51;;;;;;;2.70;0.55;;;18.70;99.90;;;;;;4952512;28;20050;-89
2023/10/06 11:55:29;;;;;;;5.80;0.60;;;19.00;99.90;;;;;;4967007;28;20031;-92
2023/10/06 11:57:55;;;;;;;7.50;0.77;;;19.00;99.90;;;;;;4930239;28;20295;-89
2023/10/06 12:00:42;;;;;;;3.03;0.60;;;19.00;99.90;;;;;;4928627;28;20051;-89
2023/10/06 12:03:13;;;;;;;5.35;0.70;;;18.90;99.90;;;;;;4951156;28;20031;-89
2023/10/06 12:05:53;;;;;;;3.15;0.50;;;18.90;99.90;;;;;;4949470;28;20042;-94
2023/10/06 12:08:19;;;;;;;4.07;0.73;;;19.00;99.90;;;;;;4954026;28;20030;-90
2023/10/06 12:10:47;;;;;;;4.53;0.80;;;19.10;99.90;;;;;;4933726;28;20034;-91
2023/10/06 12:13:13;;;;;;;3.47;0.50;;;19.10;99.90;;;;;;4953666;28;20023;-94
2023/10/06 12:15:39;;;;;;;4.10;0.95;;;19.60;99.90;;;;;;4944346;28;20045;-93
2023/10/06 12:18:05;;;;;;;4.55;0.70;;;19.80;99.90;;;;;;4944818;28;20046;-90
2023/10/06 12:20:35;;;;;;;5.00;0.90;;;19.70;99.90;;;;;;4934593;28;20114;-94
2023/10/06 12:23:01;;;;;;;2.83;0.50;;;19.50;99.90;;;;;;4969593;28;20049;-91
2023/10/06 12:25:27;;;;;;;3.45;0.50;;;20.00;99.90;;;;;;4932879;28;20114;-91
2023/10/06 12:27:53;;;;;;;4.05;0.65;;;20.30;99.90;;;;;;4954281;28;20555;-90
2023/10/06 12:30:19;;;;;;;3.65;0.70;;;19.90;99.90;;;;;;4932352;28;20037;-91
2023/10/06 12:32:48;;;;;;;7.20;0.77;;;19.60;99.90;;;;;;4953693;28;20468;-91
2023/10/06 12:35:18;;;;;;;3.80;0.65;;;19.30;99.90;;;;;;4946030;28;20130;-91
2023/10/06 12:37:49;;;;;;;4.53;0.70;;;19.30;99.90;;;;;;4951753;28;20066;-92
2023/10/06 12:40:16;;;;;;;4.50;0.93;;;19.30;99.90;;;;;;4932144;28;20023;-93
2023/10/06 12:42:43;;;;;;;6.25;0.70;;;19.00;99.90;;;;;;4941201;28;20038;-92
2023/10/06 12:45:12;;;;;;;3.45;0.77;;;19.10;99.90;;;;;;4949461;28;20452;-93
2023/10/06 12:47:39;;;;;;;5.43;0.80;;;19.40;99.90;;;;;;4937304;28;20555;-91
2023/10/06 12:50:08;;;;;;;4.13;0.68;;;19.40;99.90;;;;;;4947816;28;20043;-91
2023/10/06 12:52:36;;;;;;;3.20;0.70;;;19.30;99.90;;;;;;4949355;28;20027;-93
2023/10/06 12:55:09;;;;;;;6.88;1.02;;;19.40;99.90;;;;;;4952424;28;20050;-92
2023/10/06 12:57:36;;;;;;;4.88;1.00;;;19.00;99.90;;;;;;4942029;28;20093;-93
2023/10/06 13:00:02;;;;;;;6.43;0.90;;;18.90;99.90;;;;;;4952884;28;20105;-92
2023/10/06 13:02:31;;;;;;;2.75;0.70;;;18.90;99.90;;;;;;4967048;28;20062;-92
2023/10/06 13:05:01;;;;;;;3.97;0.65;;;19.00;99.90;;;;;;4931641;28;20435;-94
2023/10/06 13:07:31;;;;;;;5.32;1.13;;;19.00;99.90;;;;;;4947497;28;20106;-91
2023/10/06 13:09:59;;;;;;;5.50;1.27;;;18.80;99.90;;;;;;4968783;28;20104;-92
2023/10/06 13:12:28;;;;;;;3.03;0.77;;;18.70;99.90;;;;;;4938046;28;20030;-93
2023/10/06 13:14:54;;;;;;;5.03;0.73;;;18.80;99.90;;;;;;4929076;28;20038;-89